KBIL/BIL METAR and TAF weather

Enter ICAO airport designator
Station Type Date Time Source
KBIL METAR 2020/02/19 10:53 UTC NOAA

KBIL 191053Z 22005KT 10SM CLR M16/M17 A3036 RMK AO2 SLP350 I1000 T11561167


Station Type Date Time Source
KBIL Decoded METAR 2020/02/19 10:53 UTC NOAA

LOGAN INTERNATIONAL AIRPORT, MT, United States (KBIL) 45-49N 108-33W 1091M
Feb 19, 2020 - 05:53 AM EST / 2020.02.19 1053 UTC
Wind: from the SW (220 degrees) at 6 MPH (5 KT):0
Visibility: 10 mile(s):0
Sky conditions: clear
Temperature: 3.9 F (-15.6 C)
Windchill: -7 F (-22 C):2
Dew Point: 1.9 F (-16.7 C)
Relative Humidity: 91%
Pressure (altimeter): 30.36 in. Hg (1028 hPa)
ob: KBIL 191053Z 22005KT 10SM CLR M16/M17 A3036 RMK AO2 SLP350 I1000 T11561167
cycle: 11

Station Type Date Time Source
KBIL TAF 2020/02/19 12:22 UTC NOAA

TAF KBIL 191120Z 1912/2012 23005KT P6SM FEW010 SCT060
FM191500 23010KT P6SM FEW060
FM200400 23014G24KT P6SM SCT200

Example: see airport list